Time;durP1;ratioP1;P1;durP2;ratioP2;P2;SDS_P1;SDS_P2;PMS_P1;PMS_P2;Temp;Humidity;BMP_temperature;BMP_pressure;BME280_temperature;BME280_humidity;BME280_pressure;Samples;Min_cycle;Max_cycle;Signal;HPM_P1;HPM_P2
2022/12/14 00:01:43;;;;;;;35.63;16.60;;;-7.60;62.30;;;;;;4904176;28;114560;-78
2022/12/14 00:04:15;;;;;;;30.65;11.18;;;-7.50;62.30;;;;;;4905179;28;115164;-77
2022/12/14 00:06:45;;;;;;;26.50;12.52;;;-7.50;62.30;;;;;;4923141;28;115818;-76
2022/12/14 00:09:12;;;;;;;35.78;15.32;;;-7.50;62.30;;;;;;4925305;28;114636;-76
2022/12/14 00:11:39;;;;;;;18.65;10.10;;;-7.50;62.30;;;;;;4925255;28;114440;-77
2022/12/14 00:14:06;;;;;;;36.08;14.02;;;-7.50;62.40;;;;;;4924029;28;115670;-77
2022/12/14 00:16:34;;;;;;;45.30;16.10;;;-7.40;62.50;;;;;;4906495;28;116258;-76
2022/12/14 00:19:01;;;;;;;28.60;15.68;;;-7.50;62.40;;;;;;4905470;28;114427;-77
2022/12/14 00:21:28;;;;;;;16.15;9.52;;;-7.40;62.20;;;;;;4922749;28;114358;-77
2022/12/14 00:23:57;;;;;;;13.60;7.22;;;-7.50;62.30;;;;;;4922726;28;115073;-78
2022/12/14 00:26:30;;;;;;;30.33;13.95;;;-7.50;62.40;;;;;;4923873;28;114713;-77
2022/12/14 00:28:59;;;;;;;23.70;9.82;;;-7.40;62.50;;;;;;4924614;28;114499;-78
2022/12/14 00:31:26;;;;;;;39.10;23.50;;;-7.40;62.50;;;;;;4923832;28;115432;-78
2022/12/14 00:33:57;;;;;;;64.25;27.08;;;-7.40;62.40;;;;;;4904095;28;115204;-78
2022/12/14 00:36:31;;;;;;;28.05;10.43;;;-7.40;62.20;;;;;;4905226;28;115810;-77
2022/12/14 00:39:11;;;;;;;31.73;21.60;;;-7.40;61.90;;;;;;4922455;28;115546;-78
2022/12/14 00:41:38;;;;;;;29.00;16.48;;;-7.50;61.90;;;;;;4909650;28;116621;-78
2022/12/14 00:44:06;;;;;;;27.00;14.48;;;-7.60;62.00;;;;;;4925060;28;115126;-78
2022/12/14 00:46:33;;;;;;;20.13;10.77;;;-7.60;62.10;;;;;;4909282;28;115003;-78
2022/12/14 00:49:00;;;;;;;24.52;16.95;;;-7.60;61.80;;;;;;4923018;28;114681;-78
2022/12/14 00:51:27;;;;;;;43.25;17.95;;;-7.60;61.80;;;;;;4925711;28;114569;-78
2022/12/14 00:53:55;;;;;;;62.30;25.92;;;-7.70;61.90;;;;;;4924096;28;115003;-78
2022/12/14 00:56:22;;;;;;;19.17;14.52;;;-7.70;61.60;;;;;;4924756;28;115019;-78
2022/12/14 00:58:53;;;;;;;46.72;23.63;;;-7.70;61.60;;;;;;4925687;28;114821;-78
2022/12/14 01:01:20;;;;;;;55.10;22.40;;;-7.80;61.60;;;;;;4893524;28;114798;-79
2022/12/14 01:03:48;;;;;;;42.10;19.13;;;-7.80;61.50;;;;;;4924374;28;114739;-78
2022/12/14 01:06:18;;;;;;;44.75;21.02;;;-7.80;61.40;;;;;;4892451;28;114805;-77
2022/12/14 01:08:46;;;;;;;64.50;29.95;;;-7.80;61.30;;;;;;4908370;28;114676;-77
2022/12/14 01:11:13;;;;;;;30.52;12.88;;;-7.90;61.30;;;;;;4921832;28;114823;-78
2022/12/14 01:13:40;;;;;;;47.72;20.15;;;-7.80;61.10;;;;;;4921198;28;115052;-77
2022/12/14 01:16:11;;;;;;;19.42;9.20;;;-7.90;61.10;;;;;;4907397;28;114660;-77
2022/12/14 01:18:39;;;;;;;52.90;17.48;;;-8.00;61.20;;;;;;4906132;28;114902;-78
2022/12/14 01:21:18;;;;;;;27.08;19.88;;;-8.00;61.60;;;;;;4908876;28;114477;-77
2022/12/14 01:23:46;;;;;;;23.60;20.48;;;-8.00;61.70;;;;;;4923959;28;115148;-77
2022/12/14 01:26:14;;;;;;;11.15;6.25;;;-8.00;61.90;;;;;;4922460;28;114868;-77
2022/12/14 01:28:41;;;;;;;28.98;15.80;;;-8.00;62.20;;;;;;4907134;28;114569;-77
2022/12/14 01:31:11;;;;;;;73.85;31.63;;;-7.90;62.40;;;;;;4907975;28;114640;-78
2022/12/14 01:33:39;;;;;;;50.20;24.90;;;-7.90;62.30;;;;;;4904962;28;115842;-77
2022/12/14 01:36:14;;;;;;;53.00;21.75;;;-7.90;62.00;;;;;;4920525;28;114624;-77
2022/12/14 01:38:42;;;;;;;38.10;24.92;;;-7.90;61.90;;;;;;4910490;28;114639;-78
2022/12/14 01:41:30;;;;;;;27.75;13.98;;;-7.90;61.70;;;;;;4908361;28;114582;-77
2022/12/14 01:43:59;;;;;;;25.67;17.88;;;-7.90;61.70;;;;;;4940714;28;115333;-77
2022/12/14 01:46:40;;;;;;;57.03;22.20;;;-7.90;61.80;;;;;;4926132;28;115748;-77
2022/12/14 01:49:21;;;;;;;86.15;34.83;;;-7.90;61.80;;;;;;4910043;28;114541;-77
2022/12/14 01:52:06;;;;;;;22.88;11.02;;;-7.90;61.60;;;;;;4926885;28;114553;-77
2022/12/14 01:54:37;;;;;;;40.58;26.73;;;-8.00;61.40;;;;;;4905703;28;115247;-78
2022/12/14 01:57:04;;;;;;;13.98;6.97;;;-8.00;61.40;;;;;;4905822;28;114609;-77
2022/12/14 01:59:36;;;;;;;7.88;6.00;;;-8.00;61.30;;;;;;4925575;28;114746;-77
2022/12/14 02:02:05;;;;;;;16.90;11.48;;;-8.20;61.10;;;;;;4906926;28;114506;-78
2022/12/14 02:04:34;;;;;;;16.98;11.55;;;-8.30;61.50;;;;;;4922321;28;117894;-77
2022/12/14 02:07:02;;;;;;;21.67;13.00;;;-8.30;61.90;;;;;;4905784;28;114816;-77
2022/12/14 02:09:32;;;;;;;8.52;5.72;;;-8.40;62.30;;;;;;4904588;28;114862;-77
2022/12/14 02:12:08;;;;;;;10.50;7.93;;;-8.30;62.40;;;;;;4907530;28;114719;-76
2022/12/14 02:14:36;;;;;;;19.52;7.40;;;-8.30;62.50;;;;;;4907731;28;115644;-77
2022/12/14 02:17:03;;;;;;;8.13;6.15;;;-8.20;62.30;;;;;;4910152;28;114830;-77
2022/12/14 02:19:30;;;;;;;10.18;5.82;;;-8.20;62.30;;;;;;4924446;28;114437;-77
2022/12/14 02:22:52;;;;;;;6.38;3.83;;;-8.00;62.40;;;;;;4907249;28;117302;-77
2022/12/14 02:25:55;;;;;;;6.82;4.97;;;-8.00;62.60;;;;;;4892192;28;115231;-77
2022/12/14 02:28:41;;;;;;;23.50;12.40;;;-7.90;62.80;;;;;;4926121;28;114607;-77
2022/12/14 02:31:36;;;;;;;40.47;16.08;;;-7.80;62.50;;;;;;4909618;28;114429;-78
2022/12/14 02:34:35;;;;;;;25.80;12.95;;;-7.80;62.20;;;;;;4911296;28;114550;-77
2022/12/14 02:37:13;;;;;;;3.95;3.65;;;-7.80;62.20;;;;;;4920497;28;115100;-77
2022/12/14 02:39:54;;;;;;;14.57;7.72;;;-7.80;62.30;;;;;;4906431;28;115801;-78
2022/12/14 02:42:47;;;;;;;11.82;7.07;;;-7.70;62.40;;;;;;4908597;28;114614;-77
2022/12/14 02:45:25;;;;;;;19.67;9.15;;;-7.70;62.40;;;;;;4897017;28;114999;-77
2022/12/14 02:48:02;;;;;;;21.80;13.02;;;-7.60;62.40;;;;;;4906825;28;115123;-77
2022/12/14 02:50:57;;;;;;;28.05;11.43;;;-7.60;62.20;;;;;;4907444;28;115222;-77
2022/12/14 02:54:23;;;;;;;17.92;7.20;;;-7.60;62.20;;;;;;4911433;28;115568;-79
2022/12/14 02:57:00;;;;;;;31.58;11.73;;;-7.60;62.40;;;;;;4927744;28;114765;-77
2022/12/14 02:59:27;;;;;;;15.52;8.35;;;-7.70;62.30;;;;;;4908474;28;115006;-77
2022/12/14 03:01:56;;;;;;;16.42;8.27;;;-7.70;62.50;;;;;;4922325;28;115533;-78
2022/12/14 03:04:56;;;;;;;;;;;;;;;;;;;;;
2022/12/14 03:08:02;;;;;;;;;;;;;;;;;;;;;
2022/12/14 03:12:11;;;;;;;22.45;11.85;;;-7.60;62.20;;;;;;4903926;28;115604;-79
2022/12/14 03:15:21;;;;;;;30.50;19.77;;;-7.60;62.30;;;;;;4897734;28;115327;-78
2022/12/14 03:18:05;;;;;;;10.18;6.40;;;-7.60;62.40;;;;;;4877830;28;118125;-78
2022/12/14 03:21:24;;;;;;;18.25;9.18;;;-7.60;62.30;;;;;;4897196;28;114842;-78
2022/12/14 03:24:58;;;;;;;36.25;14.23;;;-7.60;62.10;;;;;;4859175;28;116667;-78
2022/12/14 03:27:54;;;;;;;32.05;11.52;;;-7.50;62.40;;;;;;4881091;28;119192;-78
2022/12/14 03:30:49;;;;;;;30.98;18.13;;;-7.50;62.60;;;;;;4908277;28;114597;-78
2022/12/14 03:33:32;;;;;;;24.60;11.52;;;-7.40;62.60;;;;;;4894133;28;114537;-77
2022/12/14 03:36:15;;;;;;;9.10;4.50;;;-7.40;62.40;;;;;;4906299;28;116363;-77
2022/12/14 03:38:45;;;;;;;23.73;18.27;;;-7.40;62.40;;;;;;4906953;28;115979;-76
2022/12/14 03:41:49;;;;;;;35.70;15.90;;;-7.30;62.50;;;;;;4904608;28;115589;-76
2022/12/14 03:44:47;;;;;;;42.40;12.82;;;-7.40;62.80;;;;;;4891135;28;114652;-77
2022/12/14 03:47:37;;;;;;;18.27;14.05;;;-7.30;62.80;;;;;;4918564;28;115200;-76
2022/12/14 03:50:44;;;;;;;27.15;12.38;;;-7.20;62.80;;;;;;4906321;28;115332;-77
2022/12/14 03:53:24;;;;;;;18.73;12.73;;;-7.30;62.60;;;;;;4907200;28;114957;-77
2022/12/14 03:56:11;;;;;;;20.02;7.55;;;-7.20;62.70;;;;;;4919606;28;114795;-77
2022/12/14 03:58:44;;;;;;;17.70;11.98;;;-7.20;62.80;;;;;;4906040;28;115339;-77
2022/12/14 04:01:36;;;;;;;14.38;6.95;;;-7.20;62.90;;;;;;4917324;28;114767;-77
2022/12/14 04:04:13;;;;;;;12.13;6.47;;;-7.20;63.10;;;;;;4907840;28;114397;-77
2022/12/14 04:07:22;;;;;;;27.27;10.20;;;-7.00;63.30;;;;;;4906613;28;114962;-77
2022/12/14 04:18:55;;;;;;;23.58;10.43;;;-6.90;63.40;;;;;;4910767;28;115140;-77
2022/12/14 04:21:52;;;;;;;10.23;5.88;;;-6.60;63.50;;;;;;4904454;28;115373;-77
2022/12/14 04:27:56;;;;;;;18.52;6.68;;;-6.50;63.40;;;;;;4906479;28;117402;-76
2022/12/14 04:30:23;;;;;;;4.85;2.63;;;-6.40;63.20;;;;;;4910865;28;114493;-77
2022/12/14 04:35:55;;;;;;;17.70;8.85;;;-6.40;63.40;;;;;;4909593;28;114620;-76
2022/12/14 04:38:28;;;;;;;12.35;10.35;;;-6.30;63.50;;;;;;4920172;28;114781;-77
2022/12/14 04:40:58;;;;;;;26.60;11.57;;;-6.30;63.50;;;;;;4905571;28;114648;-77
2022/12/14 04:43:30;;;;;;;27.13;16.63;;;-6.20;63.50;;;;;;4916347;28;115105;-77
2022/12/14 04:46:05;;;;;;;27.73;14.82;;;-6.10;63.40;;;;;;4903295;28;114918;-77
2022/12/14 04:48:47;;;;;;;16.80;8.38;;;-6.10;63.40;;;;;;4920605;28;114601;-78
2022/12/14 04:51:31;;;;;;;17.38;8.88;;;-6.10;62.90;;;;;;4906096;28;114775;-77
2022/12/14 04:54:13;;;;;;;22.10;11.13;;;-6.00;62.70;;;;;;4907894;28;115196;-77
2022/12/14 04:57:13;;;;;;;20.38;9.23;;;-6.10;62.80;;;;;;4920792;28;119403;-77
2022/12/14 04:59:45;;;;;;;18.63;8.20;;;-6.00;63.00;;;;;;4905903;28;114672;-78
2022/12/14 05:02:29;;;;;;;15.38;6.40;;;-5.90;63.10;;;;;;4904480;28;114874;-78
2022/12/14 05:05:06;;;;;;;21.25;11.63;;;-5.90;63.10;;;;;;4906663;28;118137;-77
2022/12/14 05:07:35;;;;;;;13.23;6.93;;;-6.00;63.10;;;;;;4923874;28;114698;-79
2022/12/14 05:10:10;;;;;;;15.32;6.95;;;-6.00;63.00;;;;;;4907727;28;114752;-77
2022/12/14 05:12:52;;;;;;;15.95;8.43;;;-6.00;62.80;;;;;;4905636;28;114695;-77
2022/12/14 05:15:26;;;;;;;27.02;12.23;;;-6.10;63.10;;;;;;4903986;28;115852;-78
2022/12/14 05:17:53;;;;;;;;;;;-6.10;63.10;;;;;;4919534;28;114969;-78
2022/12/14 05:20:22;;;;;;;12.80;9.32;;;-6.10;63.10;;;;;;4902445;28;115257;-77
2022/12/14 05:22:49;;;;;;;23.17;12.68;;;-6.20;62.90;;;;;;4921660;28;114606;-78
2022/12/14 05:25:16;;;;;;;26.08;12.45;;;-6.20;63.30;;;;;;4903634;28;115103;-78
2022/12/14 05:27:45;;;;;;;20.08;10.98;;;-6.20;63.40;;;;;;4906905;28;115670;-77
2022/12/14 05:30:12;;;;;;;29.40;13.75;;;-6.10;63.20;;;;;;4909013;28;119227;-78
2022/12/14 05:32:39;;;;;;;23.00;8.85;;;-6.10;63.20;;;;;;4922705;28;114526;-77
2022/12/14 05:35:07;;;;;;;30.65;17.40;;;-6.00;63.10;;;;;;4907879;28;115109;-77
2022/12/14 05:37:34;;;;;;;33.47;18.60;;;-6.00;63.20;;;;;;4906601;28;114673;-77
2022/12/14 05:40:02;;;;;;;35.83;20.08;;;-6.00;63.20;;;;;;4927731;28;114300;-77
2022/12/14 05:42:30;;;;;;;38.65;18.00;;;-5.80;63.30;;;;;;4910562;28;114605;-78
2022/12/14 05:44:57;;;;;;;28.30;12.85;;;-5.80;63.30;;;;;;4915855;28;116130;-77
2022/12/14 05:47:24;;;;;;;36.05;18.55;;;-5.80;63.10;;;;;;4926552;28;114716;-77
2022/12/14 05:49:52;;;;;;;41.22;16.35;;;-5.80;63.20;;;;;;4910414;28;114658;-76
2022/12/14 05:52:19;;;;;;;34.13;16.67;;;-5.80;63.10;;;;;;4926849;28;114594;-76
2022/12/14 05:54:46;;;;;;;37.63;17.58;;;-5.80;63.40;;;;;;4925082;28;118518;-77
2022/12/14 05:57:13;;;;;;;38.78;16.77;;;-5.70;63.40;;;;;;4907141;28;115764;-76
2022/12/14 05:59:40;;;;;;;42.30;16.90;;;-5.70;63.40;;;;;;4920758;28;114436;-77
2022/12/14 06:02:07;;;;;;;38.88;16.35;;;-5.70;63.40;;;;;;4907703;28;117679;-77
2022/12/14 06:04:35;;;;;;;30.85;18.10;;;-5.60;63.40;;;;;;4906918;28;115157;-77
2022/12/14 06:07:02;;;;;;;50.72;20.20;;;-5.50;63.40;;;;;;4906992;28;115225;-77
2022/12/14 06:09:29;;;;;;;42.22;20.50;;;-5.50;63.30;;;;;;4922495;28;117186;-77
2022/12/14 06:11:57;;;;;;;39.78;16.42;;;-5.50;63.30;;;;;;4914618;28;114424;-77
2022/12/14 06:14:24;;;;;;;40.95;18.50;;;-5.50;63.20;;;;;;4922224;28;115452;-77
2022/12/14 06:16:51;;;;;;;16.75;8.70;;;-5.50;63.20;;;;;;4925672;28;114699;-77
2022/12/14 06:19:19;;;;;;;39.22;19.73;;;-5.40;63.10;;;;;;4926791;28;114641;-77
2022/12/14 06:21:46;;;;;;;38.42;18.88;;;-5.40;63.10;;;;;;4906768;28;114804;-77
2022/12/14 06:24:13;;;;;;;34.92;17.13;;;-5.40;63.10;;;;;;4907546;28;116457;-78
2022/12/14 06:26:41;;;;;;;45.47;20.80;;;-5.40;63.10;;;;;;4920590;28;114830;-77
2022/12/14 06:29:16;;;;;;;40.95;18.38;;;-5.30;63.10;;;;;;4906877;28;114772;-77
2022/12/14 06:31:43;;;;;;;42.03;18.95;;;-5.40;63.00;;;;;;4922958;28;114503;-77
2022/12/14 06:34:15;;;;;;;41.08;19.20;;;-5.40;62.90;;;;;;4893719;28;115145;-77
2022/12/14 06:36:42;;;;;;;42.47;17.27;;;-5.40;62.90;;;;;;4904745;28;115518;-78
2022/12/14 06:39:12;;;;;;;25.90;9.93;;;-5.40;62.90;;;;;;4905548;28;114423;-77
2022/12/14 06:41:40;;;;;;;43.15;20.25;;;-5.40;62.90;;;;;;4911372;28;114514;-77
2022/12/14 06:44:11;;;;;;;32.85;14.73;;;-5.30;63.00;;;;;;4909358;28;115470;-78
2022/12/14 06:46:39;;;;;;;33.78;15.73;;;-5.40;63.10;;;;;;4910058;28;116418;-77
2022/12/14 06:49:07;;;;;;;37.53;16.15;;;-5.30;63.10;;;;;;4908641;28;114643;-77
2022/12/14 06:51:38;;;;;;;32.80;15.05;;;-5.30;63.20;;;;;;4909938;28;114529;-77
2022/12/14 06:54:05;;;;;;;45.00;17.77;;;-5.20;63.10;;;;;;4904535;28;115434;-77
2022/12/14 06:56:32;;;;;;;31.60;14.05;;;-5.30;62.90;;;;;;4910089;28;114826;-77
2022/12/14 06:59:00;;;;;;;24.92;12.25;;;-5.30;62.80;;;;;;4908423;28;114457;-77
2022/12/14 07:01:28;;;;;;;20.15;8.38;;;-5.20;62.90;;;;;;4911976;28;114792;-77
2022/12/14 07:03:56;;;;;;;21.50;8.52;;;-5.30;63.10;;;;;;4918228;28;116636;-77
2022/12/14 07:06:25;;;;;;;12.07;6.85;;;-5.30;63.00;;;;;;4911712;28;116506;-77
2022/12/14 07:08:55;;;;;;;9.13;4.47;;;-5.20;63.20;;;;;;4909265;28;114800;-77
2022/12/14 07:11:22;;;;;;;6.72;3.72;;;-5.20;63.30;;;;;;4910547;28;114648;-78
2022/12/14 07:13:49;;;;;;;32.53;12.02;;;-5.10;63.40;;;;;;4908415;28;115312;-78
2022/12/14 07:16:25;;;;;;;20.77;8.30;;;-5.00;64.10;;;;;;4908855;28;114897;-78
2022/12/14 07:18:53;;;;;;;24.55;10.43;;;-4.80;63.90;;;;;;4915421;28;115648;-77
2022/12/14 07:21:21;;;;;;;15.43;8.05;;;-4.80;63.60;;;;;;4911067;28;114370;-77
2022/12/14 07:23:51;;;;;;;22.00;9.88;;;-4.70;63.60;;;;;;4904708;28;115480;-77
2022/12/14 07:26:24;;;;;;;16.92;7.03;;;-4.70;63.50;;;;;;4905248;28;115470;-78
2022/12/14 07:28:51;;;;;;;27.75;12.52;;;-4.50;63.70;;;;;;4906387;28;114483;-77
2022/12/14 07:31:21;;;;;;;17.80;7.30;;;-4.50;63.70;;;;;;4905322;28;114853;-78
2022/12/14 07:33:52;;;;;;;21.65;10.00;;;-4.40;63.80;;;;;;4921439;28;115148;-78
2022/12/14 07:36:19;;;;;;;19.45;8.30;;;-4.40;63.50;;;;;;4923107;28;114755;-77
2022/12/14 07:38:47;;;;;;;15.73;7.32;;;-4.40;63.40;;;;;;4888933;28;114524;-77
2022/12/14 07:41:20;;;;;;;20.95;10.23;;;-4.40;63.50;;;;;;4898356;28;116661;-77
2022/12/14 07:43:50;;;;;;;19.50;8.35;;;-4.30;63.70;;;;;;4905720;28;115224;-78
2022/12/14 07:46:21;;;;;;;23.55;10.63;;;-4.30;63.70;;;;;;4913937;28;116015;-77
2022/12/14 07:48:50;;;;;;;19.50;9.30;;;-4.20;63.70;;;;;;4910923;28;114861;-78
2022/12/14 07:51:20;;;;;;;17.17;5.28;;;-4.10;63.70;;;;;;4920377;28;115358;-77
2022/12/14 07:53:48;;;;;;;17.15;7.93;;;-3.90;63.40;;;;;;4889730;28;115544;-78
2022/12/14 07:56:20;;;;;;;20.90;10.23;;;-3.90;63.40;;;;;;4904052;28;114662;-78
2022/12/14 07:58:48;;;;;;;9.52;6.88;;;-3.80;63.40;;;;;;4903404;28;114843;-77
2022/12/14 08:01:32;;;;;;;28.10;11.07;;;-3.80;63.60;;;;;;4920056;28;114798;-78
2022/12/14 08:04:04;;;;;;;26.25;12.65;;;-3.80;63.20;;;;;;4879080;28;127845;-78
2022/12/14 08:06:31;;;;;;;26.38;12.02;;;-3.80;62.50;;;;;;4908778;28;115763;-78
2022/12/14 08:08:59;;;;;;;10.68;5.13;;;-3.90;61.90;;;;;;4909748;28;114447;-78
2022/12/14 08:11:27;;;;;;;11.55;6.38;;;-4.10;62.20;;;;;;4921077;28;115334;-78
2022/12/14 08:13:55;;;;;;;8.48;4.18;;;-4.10;62.30;;;;;;4911642;28;115146;-78
2022/12/14 08:16:23;;;;;;;10.50;5.15;;;-4.20;61.60;;;;;;4907332;28;114780;-78
2022/12/14 08:18:52;;;;;;;14.68;6.65;;;-4.20;61.20;;;;;;4889825;28;114434;-77
2022/12/14 08:21:20;;;;;;;14.05;5.50;;;-4.30;61.60;;;;;;4913658;28;114651;-77
2022/12/14 08:23:48;;;;;;;9.95;3.78;;;-4.20;61.80;;;;;;4908698;28;115204;-76
2022/12/14 08:26:15;;;;;;;8.18;4.88;;;-4.10;61.40;;;;;;4922474;28;114755;-77
2022/12/14 08:28:43;;;;;;;7.85;3.50;;;-4.10;62.10;;;;;;4908109;28;114737;-78
2022/12/14 08:31:15;;;;;;;8.82;4.03;;;-3.90;62.10;;;;;;4910989;28;114490;-78
2022/12/14 08:33:43;;;;;;;6.13;3.67;;;-3.80;61.10;;;;;;4920693;28;115901;-78
2022/12/14 08:36:25;;;;;;;7.50;4.13;;;-3.80;61.50;;;;;;4907200;28;114812;-78
2022/12/14 08:38:57;;;;;;;11.00;5.53;;;-3.70;61.80;;;;;;4924719;28;114662;-78
2022/12/14 08:41:25;;;;;;;8.30;4.45;;;-3.60;61.50;;;;;;4905972;28;114510;-78
2022/12/14 08:43:55;;;;;;;14.45;6.15;;;-3.60;61.70;;;;;;4904040;28;115412;-78
2022/12/14 08:46:23;;;;;;;20.38;9.20;;;-3.40;61.80;;;;;;4920866;28;115240;-79
2022/12/14 08:48:53;;;;;;;46.97;20.80;;;-3.30;62.00;;;;;;4905526;28;114689;-78
2022/12/14 08:51:22;;;;;;;119.07;47.05;;;-3.20;62.00;;;;;;4918925;28;114401;-78
2022/12/14 08:53:50;;;;;;;131.35;51.47;;;-3.10;61.90;;;;;;4914585;28;115307;-78
2022/12/14 08:56:20;;;;;;;136.45;54.20;;;-3.00;61.80;;;;;;4913708;28;114654;-77
2022/12/14 08:58:47;;;;;;;103.60;43.13;;;-3.00;61.60;;;;;;4924174;28;114397;-78
2022/12/14 09:01:18;;;;;;;121.95;46.33;;;-3.00;61.50;;;;;;4906397;28;114496;-77
2022/12/14 09:03:46;;;;;;;96.38;36.95;;;-3.00;61.60;;;;;;4922538;28;115149;-78
2022/12/14 09:06:22;;;;;;;120.40;45.38;;;-3.00;61.70;;;;;;4911120;28;115204;-78
2022/12/14 09:08:50;;;;;;;109.28;42.05;;;-2.90;61.90;;;;;;4899069;28;115225;-78
2022/12/14 09:11:18;;;;;;;129.35;47.10;;;-2.90;62.10;;;;;;4913621;28;114436;-78
2022/12/14 09:13:47;;;;;;;123.43;49.53;;;-2.80;62.30;;;;;;4913849;28;115614;-78
2022/12/14 09:16:16;;;;;;;137.23;52.58;;;-2.80;62.30;;;;;;4910529;28;114620;-78
2022/12/14 09:18:45;;;;;;;133.38;54.58;;;-2.80;62.30;;;;;;4915146;28;114443;-78
2022/12/14 09:21:12;;;;;;;122.70;50.40;;;-2.80;62.20;;;;;;4907544;28;114923;-76
2022/12/14 09:23:40;;;;;;;129.35;55.97;;;-2.70;62.20;;;;;;4908169;28;115994;-78
2022/12/14 09:26:14;;;;;;;140.15;55.45;;;-2.70;62.10;;;;;;4908895;28;114723;-78
2022/12/14 09:28:48;;;;;;;145.63;57.38;;;-2.70;62.00;;;;;;4911654;28;114374;-78
2022/12/14 09:31:18;;;;;;;176.48;68.95;;;-2.70;62.10;;;;;;4926627;28;114743;-78
2022/12/14 09:33:46;;;;;;;181.45;70.93;;;-2.70;62.00;;;;;;4927135;28;115106;-77
2022/12/14 09:36:24;;;;;;;175.60;70.45;;;-2.70;61.80;;;;;;4927880;28;114740;-76
2022/12/14 09:38:54;;;;;;;170.27;71.45;;;-2.80;61.80;;;;;;4913915;28;114576;-77
2022/12/14 09:41:33;;;;;;;140.70;58.45;;;-2.80;61.70;;;;;;4920832;28;114385;-78
2022/12/14 09:44:24;;;;;;;157.75;66.18;;;-3.00;61.60;;;;;;4918422;28;116231;-78
2022/12/14 09:47:10;;;;;;;171.65;71.22;;;-3.00;61.50;;;;;;4924024;28;114866;-78
2022/12/14 09:50:15;;;;;;;128.70;50.13;;;-3.10;61.60;;;;;;4908466;28;114470;-78
2022/12/14 09:52:50;;;;;;;164.55;64.60;;;-3.20;61.80;;;;;;4921918;28;114466;-77
2022/12/14 09:55:36;;;;;;;160.95;66.05;;;-3.10;61.90;;;;;;4911333;28;117190;-78
2022/12/14 09:58:19;;;;;;;144.27;58.97;;;-3.10;61.90;;;;;;4910440;28;114780;-77
2022/12/14 10:01:21;;;;;;;154.52;62.40;;;-3.20;61.80;;;;;;4891370;28;114256;-77
2022/12/14 10:04:03;;;;;;;141.35;58.65;;;-3.10;61.80;;;;;;4896346;28;115079;-78
2022/12/14 10:07:00;;;;;;;129.90;58.78;;;-3.10;61.90;;;;;;4907596;28;115075;-78
2022/12/14 10:09:48;;;;;;;150.73;59.90;;;-3.10;61.90;;;;;;4905862;28;115567;-77
2022/12/14 10:12:29;;;;;;;131.00;45.88;;;-3.10;62.10;;;;;;4909347;28;114823;-76
2022/12/14 10:15:30;;;;;;;157.65;62.25;;;-3.10;62.10;;;;;;4907959;28;114491;-77
2022/12/14 10:17:59;;;;;;;143.55;58.88;;;-3.00;62.20;;;;;;4909050;28;117703;-77
2022/12/14 10:20:50;;;;;;;113.60;48.80;;;-3.00;62.20;;;;;;4907855;28;115680;-77
2022/12/14 10:23:21;;;;;;;124.13;55.78;;;-3.00;62.40;;;;;;4909846;28;114577;-77
2022/12/14 10:25:53;;;;;;;130.90;54.28;;;-3.00;62.50;;;;;;4891227;28;114818;-77
2022/12/14 10:28:42;;;;;;;145.25;62.35;;;-2.90;62.50;;;;;;4890032;28;115237;-78
2022/12/14 10:31:17;;;;;;;155.60;64.25;;;-2.90;62.40;;;;;;4909413;28;115713;-78
2022/12/14 10:33:45;;;;;;;136.20;53.15;;;-2.90;62.50;;;;;;4908670;28;115483;-78
2022/12/14 10:36:32;;;;;;;155.63;61.75;;;-2.90;62.40;;;;;;4907719;28;114497;-76
2022/12/14 10:39:01;;;;;;;147.93;61.67;;;-2.90;62.50;;;;;;4909677;28;117282;-76
2022/12/14 10:41:54;;;;;;;147.73;58.33;;;-2.90;62.70;;;;;;4926514;28;114681;-78
2022/12/14 10:44:45;;;;;;;112.13;45.90;;;-2.90;62.80;;;;;;4908654;28;114461;-78
2022/12/14 10:47:28;;;;;;;114.22;48.40;;;-2.80;62.80;;;;;;4925552;28;114709;-78
2022/12/14 10:50:05;;;;;;;63.72;25.35;;;-2.90;62.80;;;;;;4906370;28;115135;-78
2022/12/14 10:52:37;;;;;;;72.80;30.88;;;-2.90;62.70;;;;;;4890894;28;114656;-78
2022/12/14 10:55:15;;;;;;;65.03;27.88;;;-3.00;62.70;;;;;;4923559;28;114643;-78
2022/12/14 10:57:42;;;;;;;51.80;22.02;;;-3.20;62.70;;;;;;4908495;28;114467;-78
2022/12/14 11:00:15;;;;;;;53.85;24.65;;;-3.30;62.80;;;;;;4907066;28;115023;-78
2022/12/14 11:02:54;;;;;;;51.30;22.08;;;-3.30;63.10;;;;;;4925077;28;114661;-78
2022/12/14 11:06:21;;;;;;;43.33;18.85;;;-3.30;63.30;;;;;;4875259;28;114816;-78
2022/12/14 11:08:48;;;;;;;24.15;10.82;;;-3.30;63.40;;;;;;4909462;28;114758;-77
2022/12/14 11:11:21;;;;;;;39.58;15.68;;;-3.20;63.50;;;;;;4908018;28;118590;-77
2022/12/14 11:13:50;;;;;;;30.42;12.82;;;-3.20;63.40;;;;;;4906978;28;114954;-77
2022/12/14 11:16:35;;;;;;;32.67;12.77;;;-3.10;63.40;;;;;;4907586;28;114444;-77
2022/12/14 11:19:15;;;;;;;22.17;9.82;;;-3.10;63.30;;;;;;4905987;28;114472;-77
2022/12/14 11:21:43;;;;;;;30.63;11.57;;;-3.10;63.10;;;;;;4906144;28;115249;-77
2022/12/14 11:24:24;;;;;;;24.40;10.30;;;-3.00;62.80;;;;;;4918359;28;116954;-77
2022/12/14 11:27:00;;;;;;;16.58;8.70;;;-3.10;62.80;;;;;;4907504;28;114388;-77
2022/12/14 11:29:36;;;;;;;22.60;9.40;;;-3.10;62.80;;;;;;4904400;28;114382;-76
2022/12/14 11:32:04;;;;;;;12.55;6.75;;;-3.00;62.70;;;;;;4918282;28;116039;-77
2022/12/14 11:34:41;;;;;;;16.10;7.47;;;-3.00;62.30;;;;;;4903576;28;114590;-76
2022/12/14 11:37:30;;;;;;;13.43;6.43;;;-3.00;61.70;;;;;;4922169;28;114623;-77
2022/12/14 11:40:03;;;;;;;17.15;8.65;;;-3.00;61.40;;;;;;4923396;28;114871;-77
2022/12/14 11:42:30;;;;;;;23.38;9.02;;;-3.10;61.60;;;;;;4905202;28;115154;-76
2022/12/14 11:45:24;;;;;;;17.52;7.93;;;-3.10;61.80;;;;;;4915385;28;115723;-79
2022/12/14 11:48:13;;;;;;;11.68;5.53;;;-3.00;61.80;;;;;;4911324;28;114798;-77
2022/12/14 11:50:43;;;;;;;21.77;9.43;;;-3.00;61.70;;;;;;4912147;28;114725;-77
2022/12/14 11:53:13;;;;;;;17.13;8.00;;;-2.90;61.70;;;;;;4911672;28;115812;-78
2022/12/14 11:55:57;;;;;;;13.57;6.97;;;-2.90;61.70;;;;;;4913320;28;116778;-77
2022/12/14 11:58:31;;;;;;;22.23;9.27;;;-2.90;61.70;;;;;;4916519;28;114612;-77
2022/12/14 12:01:05;;;;;;;12.90;6.80;;;-2.90;61.90;;;;;;4923126;28;114691;-78
2022/12/14 12:03:40;;;;;;;20.60;9.47;;;-2.80;62.00;;;;;;4906339;28;115090;-78
2022/12/14 12:06:13;;;;;;;27.70;10.23;;;-2.80;62.00;;;;;;4903305;28;114879;-77
2022/12/14 12:08:41;;;;;;;30.88;12.90;;;-2.80;61.90;;;;;;4903743;28;116957;-78
2022/12/14 12:11:32;;;;;;;26.50;11.15;;;-2.80;62.00;;;;;;4905933;28;114514;-77
2022/12/14 12:14:03;;;;;;;30.02;13.20;;;-2.80;62.10;;;;;;4918469;28;115775;-78
2022/12/14 12:16:34;;;;;;;38.38;15.10;;;-2.80;62.10;;;;;;4904248;28;114697;-78
2022/12/14 12:19:13;;;;;;;18.05;8.23;;;-2.80;62.10;;;;;;4916352;28;114541;-78
2022/12/14 12:21:41;;;;;;;30.63;12.05;;;-2.80;61.80;;;;;;4922940;28;114587;-78
2022/12/14 12:24:17;;;;;;;22.30;10.68;;;-2.80;62.00;;;;;;4918570;28;115652;-78
2022/12/14 12:26:51;;;;;;;35.45;13.75;;;-2.80;62.00;;;;;;4917932;28;118176;-78
2022/12/14 12:29:33;;;;;;;;;;;-2.80;62.00;;;;;;4904640;28;114565;-78
2022/12/14 12:32:09;;;;;;;20.45;9.18;;;-2.80;62.20;;;;;;4905305;28;116998;-78
2022/12/14 12:34:57;;;;;;;19.95;7.68;;;-2.80;62.30;;;;;;4908170;28;115167;-77
2022/12/14 12:38:06;;;;;;;18.42;8.75;;;-2.90;62.50;;;;;;4906157;28;115989;-78
2022/12/14 12:40:42;;;;;;;23.08;8.23;;;-3.00;62.70;;;;;;4910627;28;116905;-77
2022/12/14 12:43:18;;;;;;;12.60;7.03;;;-3.10;63.00;;;;;;4907749;28;114854;-78
2022/12/14 12:46:08;;;;;;;17.33;7.75;;;-3.10;62.90;;;;;;4905913;28;115146;-78
2022/12/14 12:48:49;;;;;;;27.77;10.27;;;-3.10;63.10;;;;;;4923296;28;114740;-77
2022/12/14 12:51:33;;;;;;;19.25;8.95;;;-3.10;63.20;;;;;;4909324;28;114574;-78
2022/12/14 12:54:06;;;;;;;20.97;9.07;;;-3.10;63.30;;;;;;4906329;28;117773;-77
2022/12/14 12:56:50;;;;;;;18.30;8.37;;;-3.00;63.40;;;;;;4895647;28;118413;-77
2022/12/14 12:59:21;;;;;;;36.13;18.38;;;-2.80;63.40;;;;;;4905870;28;114761;-77
2022/12/14 13:01:51;;;;;;;25.55;13.70;;;-2.90;63.40;;;;;;4891604;28;114888;-78
2022/12/14 13:04:32;;;;;;;46.55;20.25;;;-2.80;63.60;;;;;;4892147;28;114671;-78
2022/12/14 13:07:11;;;;;;;51.58;24.15;;;-2.70;63.90;;;;;;4925375;28;115445;-77
2022/12/14 13:09:48;;;;;;;57.53;27.83;;;-2.70;63.90;;;;;;4921094;28;114817;-78
2022/12/14 13:12:31;;;;;;;71.47;32.05;;;-2.60;63.70;;;;;;4921275;28;116017;-77
2022/12/14 13:14:59;;;;;;;60.20;26.52;;;-2.60;63.70;;;;;;4919466;28;115535;-77
2022/12/14 13:17:32;;;;;;;76.53;37.45;;;-2.60;63.60;;;;;;4906238;28;115748;-77
2022/12/14 13:20:01;;;;;;;91.88;40.63;;;-2.60;63.70;;;;;;4907086;28;115853;-77
2022/12/14 13:22:30;;;;;;;85.30;36.38;;;-2.60;63.70;;;;;;4892133;28;114810;-77